Time;durP1;ratioP1;P1;durP2;ratioP2;P2;SDS_P1;SDS_P2;PMS_P1;PMS_P2;Temp;Humidity;BMP_temperature;BMP_pressure;BME280_temperature;BME280_humidity;BME280_pressure;Samples;Min_cycle;Max_cycle;Signal;HPM_P1;HPM_P2
2023/12/08 00:01:49;;;;;;;10.15;5.38;;;;;;;;;;5038473;28;20116;-61
2023/12/08 00:04:18;;;;;;;9.40;5.30;;;;;;;;;;5043351;28;20049;-65
2023/12/08 00:06:46;;;;;;;10.23;5.97;;;;;;;;;;5037755;28;20056;-62
2023/12/08 00:09:15;;;;;;;8.85;5.03;;;;;;;;;;5048069;28;20449;-64
2023/12/08 00:11:43;;;;;;;8.43;4.97;;;;;;;;;;5046606;28;20502;-62
2023/12/08 00:14:12;;;;;;;8.93;5.03;;;;;;;;;;5040971;28;20041;-63
2023/12/08 00:16:41;;;;;;;8.18;4.75;;;;;;;;;;5040790;28;20073;-61
2023/12/08 00:19:11;;;;;;;11.77;5.57;;;;;;;;;;5047555;28;20049;-62
2023/12/08 00:21:40;;;;;;;7.90;4.32;;;;;;;;;;5044738;28;20065;-65
2023/12/08 00:24:08;;;;;;;8.10;4.60;;;;;;;;;;5045668;28;20049;-61
2023/12/08 00:26:37;;;;;;;9.20;5.60;;;;;;;;;;5036551;28;20045;-61
2023/12/08 00:29:05;;;;;;;7.70;4.70;;;;;;;;;;5048582;28;20494;-63
2023/12/08 00:31:33;;;;;;;8.63;4.70;;;;;;;;;;5040493;28;20152;-64
2023/12/08 00:34:02;;;;;;;10.00;4.82;;;;;;;;;;5044002;28;20103;-67
2023/12/08 00:36:32;;;;;;;7.82;5.28;;;;;;;;;;5043690;28;20099;-63
2023/12/08 00:39:01;;;;;;;10.15;4.78;;;;;;;;;;5046357;28;20103;-62
2023/12/08 00:41:29;;;;;;;7.43;4.40;;;;;;;;;;5040130;28;20041;-62
2023/12/08 00:43:57;;;;;;;8.77;5.20;;;;;;;;;;5050393;28;20048;-63
2023/12/08 00:46:26;;;;;;;7.18;4.40;;;;;;;;;;5049493;28;20087;-66
2023/12/08 00:48:54;;;;;;;9.10;4.40;;;;;;;;;;5047982;28;20057;-61
2023/12/08 00:51:22;;;;;;;7.88;5.18;;;;;;;;;;5047536;28;20088;-62
2023/12/08 00:53:52;;;;;;;7.65;4.82;;;;;;;;;;5040537;28;20092;-62
2023/12/08 00:56:20;;;;;;;9.77;4.60;;;;;;;;;;5045170;28;20046;-63
2023/12/08 00:58:49;;;;;;;7.35;4.95;;;;;;;;;;5044520;28;20099;-62
2023/12/08 01:01:19;;;;;;;7.22;4.60;;;;;;;;;;5037143;28;20058;-61
2023/12/08 01:03:48;;;;;;;9.07;5.05;;;;;;;;;;5052133;28;20045;-61
2023/12/08 01:06:16;;;;;;;10.52;5.90;;;;;;;;;;5039594;28;20122;-64
2023/12/08 01:08:45;;;;;;;8.73;5.22;;;;;;;;;;5048954;28;20447;-63
2023/12/08 01:11:14;;;;;;;8.05;5.00;;;;;;;;;;5041660;28;20409;-64
2023/12/08 01:13:43;;;;;;;9.02;5.32;;;;;;;;;;5042156;28;20090;-61
2023/12/08 01:16:12;;;;;;;7.50;4.78;;;;;;;;;;5049827;28;20126;-61
2023/12/08 01:18:40;;;;;;;6.93;4.35;;;;;;;;;;5041711;28;20069;-62
2023/12/08 01:21:09;;;;;;;9.30;5.50;;;;;;;;;;5048328;28;20045;-64
2023/12/08 01:23:37;;;;;;;6.78;4.45;;;;;;;;;;5038737;28;20522;-61
2023/12/08 01:26:07;;;;;;;5.55;3.72;;;;;;;;;;5045158;28;20409;-62
2023/12/08 01:28:37;;;;;;;9.40;4.93;;;;;;;;;;5046702;28;20202;-62
2023/12/08 01:31:06;;;;;;;5.65;4.07;;;;;;;;;;5045381;28;20548;-64
2023/12/08 01:33:34;;;;;;;7.72;4.53;;;;;;;;;;5048642;28;20052;-62
2023/12/08 01:36:03;;;;;;;7.82;4.13;;;;;;;;;;5048250;28;20045;-64
2023/12/08 01:38:51;;;;;;;9.65;4.88;;;;;;;;;;5034672;28;20057;-61
2023/12/08 01:41:20;;;;;;;7.47;4.57;;;;;;;;;;5042111;28;20410;-61
2023/12/08 01:43:50;;;;;;;8.85;4.60;;;;;;;;;;5047941;28;20195;-64
2023/12/08 01:46:20;;;;;;;5.45;4.15;;;;;;;;;;5045883;28;20057;-63
2023/12/08 01:48:48;;;;;;;7.78;4.90;;;;;;;;;;5042093;28;20469;-62
2023/12/08 01:51:18;;;;;;;7.43;4.72;;;;;;;;;;5035410;28;20123;-61
2023/12/08 01:53:46;;;;;;;8.18;4.82;;;;;;;;;;5048501;28;20085;-61
2023/12/08 01:56:15;;;;;;;7.55;4.30;;;;;;;;;;5045449;28;20038;-63
2023/12/08 01:58:44;;;;;;;10.73;5.10;;;;;;;;;;5045978;28;20127;-63
2023/12/08 02:01:14;;;;;;;7.57;4.63;;;;;;;;;;5049118;28;20432;-63
2023/12/08 02:03:46;;;;;;;6.38;4.05;;;;;;;;;;5045069;28;20474;-62
2023/12/08 02:06:14;;;;;;;6.78;4.38;;;;;;;;;;5034559;28;20053;-65
2023/12/08 02:08:43;;;;;;;9.48;4.05;;;;;;;;;;5045337;28;20063;-65
2023/12/08 02:11:11;;;;;;;9.52;4.47;;;;;;;;;;5033376;28;20057;-65
2023/12/08 02:13:41;;;;;;;6.93;3.78;;;;;;;;;;5047975;28;20482;-61
2023/12/08 02:16:12;;;;;;;9.38;4.88;;;;;;;;;;5048676;28;20132;-63
2023/12/08 02:18:43;;;;;;;10.80;4.65;;;;;;;;;;5038777;28;20049;-65
2023/12/08 02:21:13;;;;;;;8.40;4.63;;;;;;;;;;5038229;28;20534;-68
2023/12/08 02:23:45;;;;;;;6.15;4.20;;;;;;;;;;5048141;28;20253;-67
2023/12/08 02:26:13;;;;;;;7.68;3.88;;;;;;;;;;5041998;28;20053;-63
2023/12/08 02:28:42;;;;;;;8.95;4.55;;;;;;;;;;5045420;28;20053;-60
2023/12/08 02:31:12;;;;;;;6.80;4.20;;;;;;;;;;5038892;28;20529;-63
2023/12/08 02:33:40;;;;;;;7.15;4.68;;;;;;;;;;5035237;28;20057;-61
2023/12/08 02:36:09;;;;;;;6.45;4.20;;;;;;;;;;5047099;28;20491;-64
2023/12/08 02:38:39;;;;;;;7.50;4.43;;;;;;;;;;5047430;28;20079;-60
2023/12/08 02:41:09;;;;;;;8.15;4.47;;;;;;;;;;5041577;28;20085;-62
2023/12/08 02:43:37;;;;;;;9.02;4.53;;;;;;;;;;5044091;28;20126;-64
2023/12/08 02:46:06;;;;;;;10.50;5.13;;;;;;;;;;5047693;28;20430;-61
2023/12/08 02:48:34;;;;;;;7.47;4.47;;;;;;;;;;5039334;28;20053;-64
2023/12/08 02:51:05;;;;;;;7.97;4.13;;;;;;;;;;5045381;28;20057;-63
2023/12/08 02:53:33;;;;;;;9.30;5.13;;;;;;;;;;5036103;28;20063;-63
2023/12/08 02:56:02;;;;;;;7.00;4.38;;;;;;;;;;5040716;28;20048;-65
2023/12/08 02:58:31;;;;;;;6.55;4.00;;;;;;;;;;5034336;28;20118;-63
2023/12/08 03:01:00;;;;;;;6.18;4.10;;;;;;;;;;5039295;28;20225;-64
2023/12/08 03:03:28;;;;;;;9.38;4.78;;;;;;;;;;5038238;28;20094;-61
2023/12/08 03:05:56;;;;;;;9.13;4.63;;;;;;;;;;5040927;28;20053;-61
2023/12/08 03:08:25;;;;;;;7.88;4.22;;;;;;;;;;5042264;28;20053;-64
2023/12/08 03:10:53;;;;;;;8.50;4.55;;;;;;;;;;5030900;28;20081;-68
2023/12/08 03:13:22;;;;;;;5.82;3.88;;;;;;;;;;5046962;28;20061;-62
2023/12/08 03:15:51;;;;;;;8.02;4.18;;;;;;;;;;5043198;28;20139;-65
2023/12/08 03:18:20;;;;;;;7.10;4.53;;;;;;;;;;5042938;28;20498;-61
2023/12/08 03:20:48;;;;;;;7.22;4.25;;;;;;;;;;5043736;28;20052;-65
2023/12/08 03:23:16;;;;;;;7.20;4.20;;;;;;;;;;5046339;28;20049;-63
2023/12/08 03:25:45;;;;;;;8.95;4.70;;;;;;;;;;5039518;28;20081;-64
2023/12/08 03:28:13;;;;;;;7.28;4.28;;;;;;;;;;5030987;28;20057;-61
2023/12/08 03:30:41;;;;;;;10.10;5.05;;;;;;;;;;5042031;28;20455;-61
2023/12/08 03:33:11;;;;;;;8.02;4.75;;;;;;;;;;5048391;28;20111;-61
2023/12/08 03:35:40;;;;;;;8.90;4.53;;;;;;;;;;5047874;28;20345;-61
2023/12/08 03:38:08;;;;;;;7.72;3.90;;;;;;;;;;5041069;28;20045;-63
2023/12/08 03:40:36;;;;;;;7.43;4.60;;;;;;;;;;5046965;28;20457;-61
2023/12/08 03:43:05;;;;;;;11.88;5.13;;;;;;;;;;5043380;28;20081;-61
2023/12/08 03:45:33;;;;;;;9.45;4.32;;;;;;;;;;5044178;28;20501;-62
2023/12/08 03:48:01;;;;;;;9.75;4.03;;;;;;;;;;5048041;28;20154;-63
2023/12/08 03:50:32;;;;;;;9.73;4.85;;;;;;;;;;5047330;28;20084;-63
2023/12/08 03:53:00;;;;;;;6.65;4.40;;;;;;;;;;5048548;28;20057;-61
2023/12/08 03:55:28;;;;;;;9.75;4.93;;;;;;;;;;5047065;28;20448;-61
2023/12/08 03:57:57;;;;;;;9.80;4.78;;;;;;;;;;5030817;28;20089;-61
2023/12/08 04:00:26;;;;;;;7.95;4.97;;;;;;;;;;5041923;28;20044;-63
2023/12/08 04:02:55;;;;;;;7.13;3.92;;;;;;;;;;5046853;28;20052;-62
2023/12/08 04:05:23;;;;;;;7.95;4.32;;;;;;;;;;5046087;28;20056;-61
2023/12/08 04:07:53;;;;;;;8.40;4.35;;;;;;;;;;5043667;28;20068;-61
2023/12/08 04:10:21;;;;;;;8.48;4.35;;;;;;;;;;5045474;28;20129;-61
2023/12/08 04:12:49;;;;;;;7.57;4.20;;;;;;;;;;5044783;28;20136;-64
2023/12/08 04:15:18;;;;;;;8.55;4.47;;;;;;;;;;5047907;28;20156;-63
2023/12/08 04:17:46;;;;;;;8.48;4.63;;;;;;;;;;5044823;28;20064;-62
2023/12/08 04:20:15;;;;;;;12.15;5.10;;;;;;;;;;5047254;28;20040;-61
2023/12/08 04:22:43;;;;;;;6.25;4.22;;;;;;;;;;5045872;28;20099;-65
2023/12/08 04:25:14;;;;;;;5.28;3.80;;;;;;;;;;5047200;28;20045;-62
2023/12/08 04:27:42;;;;;;;9.20;4.45;;;;;;;;;;5042780;28;20053;-64
2023/12/08 04:30:11;;;;;;;6.82;3.83;;;;;;;;;;5043226;28;20095;-63
2023/12/08 04:32:39;;;;;;;7.22;4.05;;;;;;;;;;5033613;28;20044;-61
2023/12/08 04:35:09;;;;;;;10.55;3.67;;;;;;;;;;5044663;28;20446;-61
2023/12/08 04:37:37;;;;;;;6.45;4.35;;;;;;;;;;5044171;28;20041;-62
2023/12/08 04:40:06;;;;;;;8.63;5.22;;;;;;;;;;5042008;28;20576;-61
2023/12/08 04:42:36;;;;;;;7.18;4.35;;;;;;;;;;5043079;28;20230;-63
2023/12/08 04:45:05;;;;;;;10.20;4.75;;;;;;;;;;5045052;28;20045;-61
2023/12/08 04:47:33;;;;;;;8.45;4.57;;;;;;;;;;5039347;28;20567;-61
2023/12/08 04:50:02;;;;;;;6.60;4.10;;;;;;;;;;5037278;28;20103;-63
2023/12/08 04:52:30;;;;;;;8.85;4.88;;;;;;;;;;5043894;28;20103;-66
2023/12/08 04:55:00;;;;;;;6.95;3.95;;;;;;;;;;5045432;28;20351;-63
2023/12/08 04:57:29;;;;;;;7.38;4.05;;;;;;;;;;5038049;28;20095;-61
2023/12/08 05:00:00;;;;;;;10.35;4.75;;;;;;;;;;5042308;28;20047;-61
2023/12/08 05:02:29;;;;;;;6.53;4.07;;;;;;;;;;5040683;28;20041;-63
2023/12/08 05:04:57;;;;;;;9.18;4.50;;;;;;;;;;5042290;28;20114;-64
2023/12/08 05:07:26;;;;;;;9.13;4.78;;;;;;;;;;5042371;28;20051;-65
2023/12/08 05:09:55;;;;;;;8.60;4.28;;;;;;;;;;5048541;28;20508;-61
2023/12/08 05:12:23;;;;;;;7.53;4.05;;;;;;;;;;5042245;28;20077;-61
2023/12/08 05:14:51;;;;;;;8.13;4.68;;;;;;;;;;5050405;28;20452;-63
2023/12/08 05:17:21;;;;;;;7.72;4.28;;;;;;;;;;5043145;28;20041;-63
2023/12/08 05:19:49;;;;;;;8.68;4.35;;;;;;;;;;5045647;28;21299;-64
2023/12/08 05:22:18;;;;;;;9.52;4.72;;;;;;;;;;5047456;28;20079;-61
2023/12/08 05:24:46;;;;;;;6.75;3.15;;;;;;;;;;5044952;28;20130;-63
2023/12/08 05:27:15;;;;;;;6.55;4.00;;;;;;;;;;5039409;28;20703;-63
2023/12/08 05:29:43;;;;;;;7.03;4.47;;;;;;;;;;5038639;28;20059;-62
2023/12/08 05:32:12;;;;;;;8.90;4.47;;;;;;;;;;5045057;28;20045;-64
2023/12/08 05:34:41;;;;;;;8.77;4.22;;;;;;;;;;5044805;28;20045;-61
2023/12/08 05:37:10;;;;;;;7.35;3.58;;;;;;;;;;5049480;28;20052;-61
2023/12/08 05:39:38;;;;;;;8.27;3.63;;;;;;;;;;5047158;28;20044;-63
2023/12/08 05:42:07;;;;;;;9.27;4.35;;;;;;;;;;5043969;28;20045;-63
2023/12/08 05:44:35;;;;;;;6.55;3.95;;;;;;;;;;5044196;28;20041;-64
2023/12/08 05:47:04;;;;;;;7.88;4.70;;;;;;;;;;5041436;28;20611;-61
2023/12/08 05:49:32;;;;;;;7.20;4.15;;;;;;;;;;5040896;28;20047;-61
2023/12/08 05:52:03;;;;;;;6.13;3.50;;;;;;;;;;5044015;28;20478;-65
2023/12/08 05:54:31;;;;;;;10.45;5.20;;;;;;;;;;5043266;28;20059;-65
2023/12/08 05:57:00;;;;;;;7.07;4.10;;;;;;;;;;5047424;28;20063;-64
2023/12/08 05:59:28;;;;;;;7.72;3.78;;;;;;;;;;5049518;28;20048;-61
2023/12/08 06:01:57;;;;;;;10.35;4.85;;;;;;;;;;5037806;28;20173;-62
2023/12/08 06:04:25;;;;;;;9.85;4.15;;;;;;;;;;5038769;28;20469;-64
2023/12/08 06:06:53;;;;;;;9.20;4.68;;;;;;;;;;5037791;28;20061;-62
2023/12/08 06:09:24;;;;;;;6.50;4.20;;;;;;;;;;5044580;28;20044;-66
2023/12/08 06:11:52;;;;;;;7.05;4.18;;;;;;;;;;5037860;28;20280;-63
2023/12/08 06:14:21;;;;;;;9.65;4.22;;;;;;;;;;5040775;28;20080;-61
2023/12/08 06:16:49;;;;;;;9.18;4.65;;;;;;;;;;5040513;28;20099;-63
2023/12/08 06:19:18;;;;;;;10.15;3.92;;;;;;;;;;5046200;28;20063;-62
2023/12/08 06:21:46;;;;;;;8.43;5.13;;;;;;;;;;5046945;28;20045;-62
2023/12/08 06:24:16;;;;;;;8.27;4.57;;;;;;;;;;5050239;28;20048;-61
2023/12/08 06:26:45;;;;;;;11.20;5.60;;;;;;;;;;5040095;28;20045;-67
2023/12/08 06:29:14;;;;;;;7.95;4.60;;;;;;;;;;5032849;28;20073;-64
2023/12/08 06:31:45;;;;;;;9.20;5.00;;;;;;;;;;5038002;28;20556;-65
2023/12/08 06:34:14;;;;;;;7.90;4.55;;;;;;;;;;5039392;28;20057;-63
2023/12/08 06:36:45;;;;;;;9.05;4.95;;;;;;;;;;5043020;28;20056;-62
2023/12/08 06:39:15;;;;;;;8.88;5.10;;;;;;;;;;5039387;28;20067;-63
2023/12/08 06:41:45;;;;;;;12.00;6.78;;;;;;;;;;5037709;28;20049;-62
2023/12/08 06:44:14;;;;;;;12.13;6.60;;;;;;;;;;5043201;28;20041;-64
2023/12/08 06:46:43;;;;;;;10.32;5.28;;;;;;;;;;5044773;28;20569;-64
2023/12/08 06:49:11;;;;;;;7.32;4.97;;;;;;;;;;5039807;28;20053;-62
2023/12/08 06:51:40;;;;;;;10.32;5.15;;;;;;;;;;5044063;28;20107;-62
2023/12/08 06:54:08;;;;;;;10.00;5.10;;;;;;;;;;5040527;28;20057;-64
2023/12/08 06:56:37;;;;;;;13.23;5.95;;;;;;;;;;5034667;28;20140;-65
2023/12/08 06:59:07;;;;;;;9.88;5.13;;;;;;;;;;5042947;28;20397;-64
2023/12/08 07:01:36;;;;;;;16.50;6.47;;;;;;;;;;5047612;28;20053;-62
2023/12/08 07:04:04;;;;;;;9.43;5.47;;;;;;;;;;5033486;28;20465;-65
2023/12/08 07:06:33;;;;;;;10.65;5.90;;;;;;;;;;5039642;28;20427;-63
2023/12/08 07:09:01;;;;;;;8.70;5.68;;;;;;;;;;5037058;28;20045;-63
2023/12/08 07:11:30;;;;;;;10.73;5.68;;;;;;;;;;5039755;28;20482;-62
2023/12/08 07:13:58;;;;;;;11.15;6.25;;;;;;;;;;5036493;28;20041;-62
2023/12/08 07:16:28;;;;;;;11.00;6.35;;;;;;;;;;5045355;28;20498;-64
2023/12/08 07:18:57;;;;;;;11.80;6.30;;;;;;;;;;5036455;28;20516;-63
2023/12/08 07:21:26;;;;;;;11.90;5.75;;;;;;;;;;5041798;28;20128;-63
2023/12/08 07:23:54;;;;;;;10.48;5.72;;;;;;;;;;5041605;28;20041;-64
2023/12/08 07:26:23;;;;;;;11.52;6.30;;;;;;;;;;5046839;28;20057;-63
2023/12/08 07:28:51;;;;;;;11.93;5.72;;;;;;;;;;5036207;28;20107;-62
2023/12/08 07:31:20;;;;;;;10.75;6.60;;;;;;;;;;5040027;28;20106;-62
2023/12/08 07:33:50;;;;;;;8.27;5.57;;;;;;;;;;5045749;28;20052;-64
2023/12/08 07:36:19;;;;;;;9.93;6.28;;;;;;;;;;5047758;28;20762;-62
2023/12/08 07:38:47;;;;;;;11.25;5.88;;;;;;;;;;5041137;28;20041;-61
2023/12/08 07:41:16;;;;;;;11.73;5.70;;;;;;;;;;5042361;28;20447;-62
2023/12/08 07:43:45;;;;;;;12.60;6.20;;;;;;;;;;5032735;28;20041;-63
2023/12/08 07:46:13;;;;;;;13.80;5.20;;;;;;;;;;5042581;28;20056;-63
2023/12/08 07:48:41;;;;;;;11.38;6.00;;;;;;;;;;5040539;28;20072;-64
2023/12/08 07:51:11;;;;;;;9.52;5.72;;;;;;;;;;5044034;28;20425;-66
2023/12/08 07:53:40;;;;;;;12.15;5.95;;;;;;;;;;5035696;28;20501;-63
2023/12/08 07:56:09;;;;;;;10.55;5.85;;;;;;;;;;5043347;28;20044;-63
2023/12/08 07:58:37;;;;;;;10.60;5.93;;;;;;;;;;5045644;28;20501;-64
2023/12/08 08:01:06;;;;;;;11.57;6.72;;;;;;;;;;5041813;28;20041;-63
2023/12/08 08:03:34;;;;;;;10.18;5.85;;;;;;;;;;5035839;28;20045;-63
2023/12/08 08:06:03;;;;;;;13.68;6.97;;;;;;;;;;5044116;28;20055;-63
2023/12/08 08:08:34;;;;;;;12.70;6.18;;;;;;;;;;5038682;28;20419;-63
2023/12/08 08:11:02;;;;;;;11.40;5.95;;;;;;;;;;5039158;28;20046;-63
2023/12/08 08:13:30;;;;;;;10.27;5.88;;;;;;;;;;5035364;28;20049;-64
2023/12/08 08:15:59;;;;;;;13.32;6.00;;;;;;;;;;5042961;28;20048;-62
2023/12/08 08:18:28;;;;;;;10.13;5.78;;;;;;;;;;5038481;28;20525;-63
2023/12/08 08:20:57;;;;;;;10.48;5.43;;;;;;;;;;5038828;28;20368;-62
2023/12/08 08:23:26;;;;;;;11.88;6.13;;;;;;;;;;5041200;28;20103;-64
2023/12/08 08:25:55;;;;;;;11.48;5.63;;;;;;;;;;5034536;28;20053;-65
2023/12/08 08:28:26;;;;;;;9.27;5.00;;;;;;;;;;5039614;28;20149;-63
2023/12/08 08:30:54;;;;;;;11.38;5.82;;;;;;;;;;5040849;28;20060;-62
2023/12/08 08:33:23;;;;;;;9.63;4.70;;;;;;;;;;5047235;28;20114;-63
2023/12/08 08:35:52;;;;;;;9.85;5.93;;;;;;;;;;5039660;28;20479;-64
2023/12/08 08:38:20;;;;;;;11.40;5.80;;;;;;;;;;5043665;28;20049;-64
2023/12/08 08:40:50;;;;;;;10.30;5.90;;;;;;;;;;5043636;28;20104;-63
2023/12/08 08:43:19;;;;;;;9.95;5.15;;;;;;;;;;5046721;28;20509;-62
2023/12/08 08:45:48;;;;;;;11.05;5.97;;;;;;;;;;5043543;28;20449;-62
2023/12/08 08:48:16;;;;;;;8.48;5.25;;;;;;;;;;5041634;28;20045;-65
2023/12/08 08:50:49;;;;;;;12.93;6.18;;;;;;;;;;5046388;28;20045;-63
2023/12/08 08:53:18;;;;;;;8.50;5.40;;;;;;;;;;5041854;28;20038;-63
2023/12/08 08:55:46;;;;;;;10.50;6.15;;;;;;;;;;5043072;28;20149;-62
2023/12/08 08:58:15;;;;;;;10.57;6.35;;;;;;;;;;5039827;28;20056;-63
2023/12/08 09:00:45;;;;;;;13.27;6.65;;;;;;;;;;5046685;28;20041;-63
2023/12/08 09:03:14;;;;;;;10.23;6.00;;;;;;;;;;5045959;28;20060;-64
2023/12/08 09:05:42;;;;;;;16.35;7.85;;;;;;;;;;5038337;28;20166;-62
2023/12/08 09:08:11;;;;;;;13.88;6.85;;;;;;;;;;5039732;28;20053;-62
2023/12/08 09:10:40;;;;;;;12.63;6.57;;;;;;;;;;5044111;28;20048;-60
2023/12/08 09:13:08;;;;;;;11.52;6.53;;;;;;;;;;5046364;28;20052;-69
2023/12/08 09:15:37;;;;;;;17.17;7.40;;;;;;;;;;5047803;28;20107;-62
2023/12/08 09:18:06;;;;;;;13.13;6.72;;;;;;;;;;5047694;28;20111;-65
2023/12/08 09:20:37;;;;;;;11.73;6.78;;;;;;;;;;5048702;28;20564;-63
2023/12/08 09:23:06;;;;;;;11.00;6.00;;;;;;;;;;5044654;28;20046;-64
2023/12/08 09:25:35;;;;;;;11.75;6.28;;;;;;;;;;5035881;28;20041;-65
2023/12/08 09:28:05;;;;;;;10.18;5.72;;;;;;;;;;5043114;28;20103;-62
2023/12/08 09:30:33;;;;;;;9.70;5.97;;;;;;;;;;5044921;28;20067;-61
2023/12/08 09:33:02;;;;;;;10.82;6.28;;;;;;;;;;5039240;28;20045;-63
2023/12/08 09:35:34;;;;;;;9.90;5.90;;;;;;;;;;5044900;28;20061;-62
2023/12/08 09:38:03;;;;;;;10.98;5.68;;;;;;;;;;5043265;28;20049;-62
2023/12/08 09:40:33;;;;;;;14.35;5.80;;;;;;;;;;5043116;28;20076;-63
2023/12/08 09:43:05;;;;;;;11.18;5.95;;;;;;;;;;5046688;28;20098;-63
2023/12/08 09:45:34;;;;;;;11.38;5.95;;;;;;;;;;5047913;28;20076;-63
2023/12/08 09:48:04;;;;;;;10.32;6.20;;;;;;;;;;5044534;28;20497;-64
2023/12/08 09:50:34;;;;;;;12.50;6.47;;;;;;;;;;5039696;28;20507;-63
2023/12/08 09:53:04;;;;;;;11.10;5.72;;;;;;;;;;5040139;28;20045;-64
2023/12/08 09:55:33;;;;;;;11.57;5.47;;;;;;;;;;5045873;28;20060;-61
2023/12/08 09:58:02;;;;;;;8.70;5.32;;;;;;;;;;5044744;28;20509;-61
2023/12/08 10:00:33;;;;;;;16.52;6.93;;;;;;;;;;5049743;28;20493;-62
2023/12/08 10:03:02;;;;;;;9.90;5.50;;;;;;;;;;5037385;28;20060;-66
2023/12/08 10:05:30;;;;;;;9.27;5.30;;;;;;;;;;5036820;28;20494;-64
2023/12/08 10:08:01;;;;;;;8.95;5.15;;;;;;;;;;5041606;28;20139;-61
2023/12/08 10:10:30;;;;;;;10.00;5.60;;;;;;;;;;5039359;28;20052;-61
2023/12/08 10:12:59;;;;;;;11.02;6.43;;;;;;;;;;5035606;28;20092;-61
2023/12/08 10:15:27;;;;;;;16.02;6.32;;;;;;;;;;5046580;28;20490;-63
2023/12/08 10:17:56;;;;;;;11.70;6.95;;;;;;;;;;5040035;28;20357;-63
2023/12/08 10:20:25;;;;;;;13.00;6.28;;;;;;;;;;5045575;28;20048;-61
2023/12/08 10:22:54;;;;;;;14.05;6.32;;;;;;;;;;5047305;28;20117;-61
2023/12/08 10:25:24;;;;;;;12.68;6.70;;;;;;;;;;5047119;28;20477;-66
2023/12/08 10:27:54;;;;;;;13.70;6.95;;;;;;;;;;5040762;28;20544;-62
2023/12/08 10:30:24;;;;;;;10.80;5.88;;;;;;;;;;5034325;28;20140;-65
2023/12/08 10:32:53;;;;;;;10.82;5.90;;;;;;;;;;5049823;28;20421;-65
2023/12/08 10:35:23;;;;;;;13.13;7.07;;;;;;;;;;5047125;28;20060;-62
2023/12/08 10:37:51;;;;;;;13.38;6.93;;;;;;;;;;5043534;28;20052;-65
2023/12/08 10:40:20;;;;;;;15.43;7.22;;;;;;;;;;5039154;28;20076;-72
2023/12/08 10:42:50;;;;;;;13.43;5.85;;;;;;;;;;5043654;28;20507;-63
2023/12/08 10:45:18;;;;;;;10.38;5.97;;;;;;;;;;5044759;28;20052;-67
2023/12/08 10:47:49;;;;;;;13.13;7.47;;;;;;;;;;5048745;28;20132;-61
2023/12/08 10:50:18;;;;;;;14.18;7.20;;;;;;;;;;5044254;28;20448;-64
2023/12/08 10:52:48;;;;;;;13.35;6.75;;;;;;;;;;5038428;28;20103;-62
2023/12/08 10:55:17;;;;;;;13.35;7.18;;;;;;;;;;5042206;28;20077;-63
2023/12/08 10:57:47;;;;;;;13.82;7.13;;;;;;;;;;5044620;28;20041;-61
2023/12/08 11:00:19;;;;;;;14.02;6.85;;;;;;;;;;5043168;28;20107;-62
2023/12/08 11:02:49;;;;;;;12.73;6.38;;;;;;;;;;5049285;28;20056;-63
2023/12/08 11:05:20;;;;;;;12.45;6.60;;;;;;;;;;5042312;28;20045;-64
2023/12/08 11:07:49;;;;;;;14.45;6.78;;;;;;;;;;5048606;28;20052;-61
2023/12/08 11:10:18;;;;;;;12.82;6.60;;;;;;;;;;5039383;28;20052;-61
2023/12/08 11:12:50;;;;;;;12.68;6.65;;;;;;;;;;5038735;28;20581;-66
2023/12/08 11:15:21;;;;;;;10.38;6.03;;;;;;;;;;5046234;28;20414;-65
2023/12/08 11:17:51;;;;;;;11.85;6.50;;;;;;;;;;5041722;28;20438;-62
2023/12/08 11:20:20;;;;;;;15.95;5.82;;;;;;;;;;5043262;28;20076;-61
2023/12/08 11:22:48;;;;;;;12.35;7.05;;;;;;;;;;5039058;28;20128;-65
2023/12/08 11:25:21;;;;;;;11.55;6.45;;;;;;;;;;5040764;28;20045;-62
2023/12/08 11:27:51;;;;;;;16.38;6.20;;;;;;;;;;5045236;28;20059;-64
2023/12/08 11:30:24;;;;;;;11.05;6.18;;;;;;;;;;5036767;28;20056;-62
2023/12/08 11:32:56;;;;;;;17.30;6.38;;;;;;;;;;5044471;28;20391;-64
2023/12/08 11:35:25;;;;;;;10.88;6.28;;;;;;;;;;5043510;28;20049;-61
2023/12/08 11:37:53;;;;;;;10.55;6.25;;;;;;;;;;5046520;28;20563;-64
2023/12/08 11:40:22;;;;;;;11.27;6.43;;;;;;;;;;5041611;28;20053;-63
2023/12/08 11:42:53;;;;;;;13.73;7.38;;;;;;;;;;5044363;28;20053;-65
2023/12/08 11:45:23;;;;;;;12.68;6.45;;;;;;;;;;5024320;28;20049;-64
2023/12/08 11:47:51;;;;;;;14.07;7.05;;;;;;;;;;5039126;28;20620;-63
2023/12/08 11:50:20;;;;;;;11.05;6.20;;;;;;;;;;5048363;28;20383;-63
2023/12/08 11:52:49;;;;;;;11.70;6.93;;;;;;;;;;5045317;28;20049;-65
2023/12/08 11:55:20;;;;;;;14.05;7.40;;;;;;;;;;5035175;28;20495;-65
2023/12/08 11:58:06;;;;;;;11.77;6.22;;;;;;;;;;5045762;28;20045;-61
2023/12/08 12:00:37;;;;;;;11.68;6.72;;;;;;;;;;5039624;28;20490;-63
2023/12/08 12:03:06;;;;;;;10.65;6.13;;;;;;;;;;5037090;28;20065;-69
2023/12/08 12:05:38;;;;;;;10.38;6.13;;;;;;;;;;5034214;28;20079;-64
2023/12/08 12:08:08;;;;;;;9.90;5.90;;;;;;;;;;5032208;28;20044;-64
2023/12/08 12:10:36;;;;;;;11.77;5.85;;;;;;;;;;5036357;28;20057;-64
2023/12/08 12:13:05;;;;;;;10.05;5.97;;;;;;;;;;5035346;28;20100;-66
2023/12/08 12:15:34;;;;;;;11.57;6.28;;;;;;;;;;5030930;28;20057;-67
2023/12/08 12:18:05;;;;;;;11.63;6.00;;;;;;;;;;5043831;28;20453;-62
2023/12/08 12:20:35;;;;;;;10.68;5.97;;;;;;;;;;5045458;28;20045;-62
2023/12/08 12:23:03;;;;;;;16.25;6.78;;;;;;;;;;5038288;28;20057;-71
2023/12/08 12:25:32;;;;;;;14.18;5.72;;;;;;;;;;5033718;28;20049;-67
2023/12/08 12:28:00;;;;;;;13.07;6.13;;;;;;;;;;5044352;28;20429;-64
2023/12/08 12:30:31;;;;;;;9.55;5.85;;;;;;;;;;5033525;28;20374;-64
2023/12/08 12:32:59;;;;;;;11.18;6.00;;;;;;;;;;5037785;28;20056;-62
2023/12/08 12:35:29;;;;;;;10.73;5.85;;;;;;;;;;5045371;28;20044;-71
2023/12/08 12:37:58;;;;;;;12.02;6.20;;;;;;;;;;5036696;28;20106;-67
2023/12/08 12:40:26;;;;;;;12.50;6.07;;;;;;;;;;5045842;28;20452;-64
2023/12/08 12:42:55;;;;;;;9.18;5.78;;;;;;;;;;5040797;28;20052;-64
2023/12/08 12:45:27;;;;;;;15.30;6.32;;;;;;;;;;5040234;28;20068;-62
2023/12/08 12:48:00;;;;;;;12.68;6.53;;;;;;;;;;5045400;28;20044;-64
2023/12/08 12:50:30;;;;;;;10.25;6.32;;;;;;;;;;5040478;28;20056;-68
2023/12/08 12:53:05;;;;;;;9.35;5.70;;;;;;;;;;5037306;28;20045;-63
2023/12/08 12:55:33;;;;;;;;;;;;;;;;;;5038067;28;20052;-62
2023/12/08 12:58:02;;;;;;;10.05;6.07;;;;;;;;;;5047146;28;19994;-62
2023/12/08 13:00:32;;;;;;;10.82;6.05;;;;;;;;;;5042210;28;20041;-68
2023/12/08 13:03:10;;;;;;;15.30;6.32;;;;;;;;;;5035446;28;20436;-65
2023/12/08 13:05:46;;;;;;;14.63;7.07;;;;;;;;;;5035333;28;20041;-66
2023/12/08 13:08:15;;;;;;;12.23;6.00;;;;;;;;;;5041729;28;20041;-62
2023/12/08 13:10:45;;;;;;;13.65;7.13;;;;;;;;;;5040396;28;20149;-62
2023/12/08 13:13:13;;;;;;;12.48;6.38;;;;;;;;;;5043939;28;20056;-64
2023/12/08 13:15:42;;;;;;;12.85;6.80;;;;;;;;;;5029362;28;20049;-66
2023/12/08 13:18:11;;;;;;;12.68;5.55;;;;;;;;;;5038949;28;20126;-66
2023/12/08 13:20:40;;;;;;;11.07;6.30;;;;;;;;;;5043000;28;20482;-62
2023/12/08 13:23:11;;;;;;;8.90;6.07;;;;;;;;;;5038070;28;20084;-63
2023/12/08 13:25:40;;;;;;;9.05;6.13;;;;;;;;;;5035636;28;20055;-64
2023/12/08 13:28:08;;;;;;;10.95;5.75;;;;;;;;;;5038141;28;20157;-68
2023/12/08 13:30:37;;;;;;;10.98;6.45;;;;;;;;;;5043455;28;20049;-66
2023/12/08 13:33:05;;;;;;;15.10;6.75;;;;;;;;;;5048419;28;20049;-63
2023/12/08 13:35:35;;;;;;;12.48;6.70;;;;;;;;;;5045090;28;20047;-65
2023/12/08 13:38:03;;;;;;;12.35;6.68;;;;;;;;;;5046088;28;20418;-66
2023/12/08 13:40:33;;;;;;;14.48;7.35;;;;;;;;;;5047696;28;20041;-66
2023/12/08 13:43:02;;;;;;;10.00;6.20;;;;;;;;;;5045671;28;20045;-64
2023/12/08 13:45:31;;;;;;;15.40;5.68;;;;;;;;;;5045066;28;20128;-63
2023/12/08 13:47:59;;;;;;;10.70;5.75;;;;;;;;;;5045267;28;20049;-63
2023/12/08 13:50:28;;;;;;;10.75;6.32;;;;;;;;;;5042302;28;20103;-65
2023/12/08 13:52:55;;;;;;;12.50;6.80;;;;;;;;;;5033697;28;20142;-67
2023/12/08 13:55:23;;;;;;;12.98;6.45;;;;;;;;;;5040329;28;20060;-68
2023/12/08 13:57:53;;;;;;;11.52;6.07;;;;;;;;;;5045817;28;20115;-65
2023/12/08 14:00:21;;;;;;;11.90;5.82;;;;;;;;;;5036153;28;20094;-64
2023/12/08 14:02:50;;;;;;;10.60;6.18;;;;;;;;;;5040487;28;20037;-64
2023/12/08 14:05:19;;;;;;;9.85;5.45;;;;;;;;;;5044676;28;20075;-65
2023/12/08 14:07:49;;;;;;;13.25;6.15;;;;;;;;;;5043018;28;20077;-72
2023/12/08 14:10:21;;;;;;;10.57;6.22;;;;;;;;;;5040320;28;20064;-62
2023/12/08 14:12:50;;;;;;;10.13;6.25;;;;;;;;;;5041293;28;20148;-62
2023/12/08 14:15:19;;;;;;;13.75;5.65;;;;;;;;;;5042910;28;20390;-64
2023/12/08 14:17:48;;;;;;;13.13;5.75;;;;;;;;;;5047234;28;20049;-70
2023/12/08 14:20:17;;;;;;;9.93;6.28;;;;;;;;;;5047300;28;20056;-65
2023/12/08 14:22:46;;;;;;;17.45;6.75;;;;;;;;;;5046909;28;20049;-64
2023/12/08 14:25:14;;;;;;;14.40;6.65;;;;;;;;;;5049442;28;20190;-63
2023/12/08 14:27:43;;;;;;;10.35;6.15;;;;;;;;;;5046527;28;20508;-66
2023/12/08 14:30:11;;;;;;;9.57;5.40;;;;;;;;;;5040339;28;20065;-65
2023/12/08 14:32:41;;;;;;;9.27;5.20;;;;;;;;;;5044810;28;21138;-66
2023/12/08 14:35:10;;;;;;;12.85;5.78;;;;;;;;;;5047712;28;20049;-63
2023/12/08 14:37:53;;;;;;;13.23;6.13;;;;;;;;;;5044988;28;20056;-64
2023/12/08 14:40:22;;;;;;;13.02;6.15;;;;;;;;;;5042950;28;20048;-69
2023/12/08 14:42:53;;;;;;;13.68;5.65;;;;;;;;;;5037129;28;20502;-67
2023/12/08 14:45:21;;;;;;;10.20;6.38;;;;;;;;;;5041140;28;20044;-64
2023/12/08 14:47:51;;;;;;;10.88;6.68;;;;;;;;;;5045208;28;20059;-64